sensor_id;sensor_type;location;lat;lon;timestamp;temperature;humidity
11474;DHT22;5793;52.238;13.438;2022-11-20T00:00:55;-0.70;99.90
11474;DHT22;5793;52.238;13.438;2022-11-20T00:03:23;-0.60;99.90
11474;DHT22;5793;52.238;13.438;2022-11-20T00:05:50;-0.60;99.90
11474;DHT22;5793;52.238;13.438;2022-11-20T00:08:18;-0.60;99.90
11474;DHT22;5793;52.238;13.438;2022-11-20T00:10:46;-0.60;99.90
11474;DHT22;5793;52.238;13.438;2022-11-20T00:13:15;-0.60;99.90
11474;DHT22;5793;52.238;13.438;2022-11-20T00:15:43;-0.50;99.90
11474;DHT22;5793;52.238;13.438;2022-11-20T00:18:11;-0.50;99.90
11474;DHT22;5793;52.238;13.438;2022-11-20T00:20:39;-0.50;99.90
11474;DHT22;5793;52.238;13.438;2022-11-20T00:23:06;-0.40;99.90
11474;DHT22;5793;52.238;13.438;2022-11-20T00:25:34;-0.40;99.90
11474;DHT22;5793;52.238;13.438;2022-11-20T00:28:02;-0.40;99.90
11474;DHT22;5793;52.238;13.438;2022-11-20T00:30:31;-0.50;99.90
11474;DHT22;5793;52.238;13.438;2022-11-20T00:32:59;-0.40;99.90
11474;DHT22;5793;52.238;13.438;2022-11-20T00:35:26;-0.50;99.90
11474;DHT22;5793;52.238;13.438;2022-11-20T00:37:54;-0.60;99.90
11474;DHT22;5793;52.238;13.438;2022-11-20T00:40:22;-0.60;99.90
11474;DHT22;5793;52.238;13.438;2022-11-20T00:42:50;-0.60;99.90
11474;DHT22;5793;52.238;13.438;2022-11-20T00:45:17;-0.70;99.90
11474;DHT22;5793;52.238;13.438;2022-11-20T00:47:46;-0.70;99.90
11474;DHT22;5793;52.238;13.438;2022-11-20T00:50:14;-0.70;99.90
11474;DHT22;5793;52.238;13.438;2022-11-20T00:52:42;-0.70;99.90
11474;DHT22;5793;52.238;13.438;2022-11-20T00:55:10;-0.70;99.90
11474;DHT22;5793;52.238;13.438;2022-11-20T00:57:37;-0.70;99.90
11474;DHT22;5793;52.238;13.438;2022-11-20T01:00:08;-0.70;99.90
11474;DHT22;5793;52.238;13.438;2022-11-20T01:02:36;-0.60;99.90
11474;DHT22;5793;52.238;13.438;2022-11-20T01:05:05;-0.60;99.90
11474;DHT22;5793;52.238;13.438;2022-11-20T01:07:33;-0.60;99.90
11474;DHT22;5793;52.238;13.438;2022-11-20T01:10:01;-0.60;99.90
11474;DHT22;5793;52.238;13.438;2022-11-20T01:12:28;-0.60;99.90
11474;DHT22;5793;52.238;13.438;2022-11-20T01:14:56;-0.60;99.90
11474;DHT22;5793;52.238;13.438;2022-11-20T01:17:24;-0.60;99.90
11474;DHT22;5793;52.238;13.438;2022-11-20T01:19:52;-0.60;99.90
11474;DHT22;5793;52.238;13.438;2022-11-20T01:22:21;-0.70;99.90
11474;DHT22;5793;52.238;13.438;2022-11-20T01:24:48;-0.60;99.90
11474;DHT22;5793;52.238;13.438;2022-11-20T01:27:16;-0.60;99.90
11474;DHT22;5793;52.238;13.438;2022-11-20T01:29:44;-0.60;99.90
11474;DHT22;5793;52.238;13.438;2022-11-20T01:32:11;-0.60;99.90
11474;DHT22;5793;52.238;13.438;2022-11-20T01:34:39;-0.70;99.90
11474;DHT22;5793;52.238;13.438;2022-11-20T01:37:07;-0.70;99.90
11474;DHT22;5793;52.238;13.438;2022-11-20T01:39:36;-0.60;99.90
11474;DHT22;5793;52.238;13.438;2022-11-20T01:42:04;-0.70;99.90
11474;DHT22;5793;52.238;13.438;2022-11-20T01:44:54;-0.70;99.90
11474;DHT22;5793;52.238;13.438;2022-11-20T01:47:25;-0.50;99.90
11474;DHT22;5793;52.238;13.438;2022-11-20T01:49:56;-0.50;99.90
11474;DHT22;5793;52.238;13.438;2022-11-20T01:52:29;-0.50;99.90
11474;DHT22;5793;52.238;13.438;2022-11-20T01:55:03;-0.40;99.90
11474;DHT22;5793;52.238;13.438;2022-11-20T01:57:33;-0.40;99.90
11474;DHT22;5793;52.238;13.438;2022-11-20T02:00:05;-0.30;99.90
11474;DHT22;5793;52.238;13.438;2022-11-20T02:02:34;-0.30;99.90
11474;DHT22;5793;52.238;13.438;2022-11-20T02:05:09;-0.40;99.90
11474;DHT22;5793;52.238;13.438;2022-11-20T02:07:39;-0.30;99.90
11474;DHT22;5793;52.238;13.438;2022-11-20T02:10:09;-0.30;99.90
11474;DHT22;5793;52.238;13.438;2022-11-20T02:12:36;-0.30;99.90
11474;DHT22;5793;52.238;13.438;2022-11-20T02:15:22;-0.30;99.90
11474;DHT22;5793;52.238;13.438;2022-11-20T02:17:55;-0.40;99.90
11474;DHT22;5793;52.238;13.438;2022-11-20T02:20:23;-0.40;99.90
11474;DHT22;5793;52.238;13.438;2022-11-20T02:22:56;-0.50;99.90
11474;DHT22;5793;52.238;13.438;2022-11-20T02:25:27;-0.50;99.90
11474;DHT22;5793;52.238;13.438;2022-11-20T02:27:56;-0.50;99.90
11474;DHT22;5793;52.238;13.438;2022-11-20T02:30:24;-0.60;99.90
11474;DHT22;5793;52.238;13.438;2022-11-20T02:32:52;-0.60;99.90
11474;DHT22;5793;52.238;13.438;2022-11-20T02:35:40;-0.60;99.90
11474;DHT22;5793;52.238;13.438;2022-11-20T02:38:08;-0.60;99.90
11474;DHT22;5793;52.238;13.438;2022-11-20T02:40:37;-0.60;99.90
11474;DHT22;5793;52.238;13.438;2022-11-20T02:43:05;-0.70;99.90
11474;DHT22;5793;52.238;13.438;2022-11-20T02:45:33;-0.70;99.90
11474;DHT22;5793;52.238;13.438;2022-11-20T02:48:01;-0.80;99.90
11474;DHT22;5793;52.238;13.438;2022-11-20T02:50:29;-0.80;99.90
11474;DHT22;5793;52.238;13.438;2022-11-20T02:52:56;-0.90;99.90
11474;DHT22;5793;52.238;13.438;2022-11-20T02:55:24;-0.90;99.90
11474;DHT22;5793;52.238;13.438;2022-11-20T02:57:53;-0.80;99.90
11474;DHT22;5793;52.238;13.438;2022-11-20T03:00:21;-0.80;99.90
11474;DHT22;5793;52.238;13.438;2022-11-20T03:02:49;-0.80;99.90
11474;DHT22;5793;52.238;13.438;2022-11-20T03:05:16;-0.80;99.90
11474;DHT22;5793;52.238;13.438;2022-11-20T03:07:44;-0.80;99.90
11474;DHT22;5793;52.238;13.438;2022-11-20T03:10:12;-0.80;99.90
11474;DHT22;5793;52.238;13.438;2022-11-20T03:12:40;-0.80;99.90
11474;DHT22;5793;52.238;13.438;2022-11-20T03:15:09;-0.80;99.90
11474;DHT22;5793;52.238;13.438;2022-11-20T03:17:37;-0.90;99.90
11474;DHT22;5793;52.238;13.438;2022-11-20T03:20:07;-0.90;99.90
11474;DHT22;5793;52.238;13.438;2022-11-20T03:22:35;-1.00;99.90
11474;DHT22;5793;52.238;13.438;2022-11-20T03:25:04;-1.10;99.90
11474;DHT22;5793;52.238;13.438;2022-11-20T03:27:32;-1.10;99.90
11474;DHT22;5793;52.238;13.438;2022-11-20T03:30:01;-1.00;99.90
11474;DHT22;5793;52.238;13.438;2022-11-20T03:32:30;-1.00;99.90
11474;DHT22;5793;52.238;13.438;2022-11-20T03:34:58;-1.00;99.90
11474;DHT22;5793;52.238;13.438;2022-11-20T03:37:25;-0.90;99.90
11474;DHT22;5793;52.238;13.438;2022-11-20T03:39:53;-0.90;99.90
11474;DHT22;5793;52.238;13.438;2022-11-20T03:42:21;-0.90;99.90
11474;DHT22;5793;52.238;13.438;2022-11-20T03:45:09;-0.90;99.90
11474;DHT22;5793;52.238;13.438;2022-11-20T03:47:38;-0.80;99.90
11474;DHT22;5793;52.238;13.438;2022-11-20T03:50:06;-0.70;99.90
11474;DHT22;5793;52.238;13.438;2022-11-20T03:52:34;-0.70;99.90
11474;DHT22;5793;52.238;13.438;2022-11-20T03:55:02;-0.60;99.90
11474;DHT22;5793;52.238;13.438;2022-11-20T03:57:30;-0.50;99.90
11474;DHT22;5793;52.238;13.438;2022-11-20T03:59:58;-0.50;99.90
11474;DHT22;5793;52.238;13.438;2022-11-20T04:02:26;-0.50;99.90
11474;DHT22;5793;52.238;13.438;2022-11-20T04:04:55;-0.40;99.90
11474;DHT22;5793;52.238;13.438;2022-11-20T04:07:22;-0.30;99.90
11474;DHT22;5793;52.238;13.438;2022-11-20T04:09:50;-0.30;99.90
11474;DHT22;5793;52.238;13.438;2022-11-20T04:12:18;-0.30;99.90
11474;DHT22;5793;52.238;13.438;2022-11-20T04:14:46;-0.40;99.90
11474;DHT22;5793;52.238;13.438;2022-11-20T04:17:13;-0.40;99.90
11474;DHT22;5793;52.238;13.438;2022-11-20T04:19:41;-0.40;99.90
11474;DHT22;5793;52.238;13.438;2022-11-20T04:22:10;-0.40;99.90
11474;DHT22;5793;52.238;13.438;2022-11-20T04:24:38;-0.40;99.90
11474;DHT22;5793;52.238;13.438;2022-11-20T04:27:06;-0.40;99.90
11474;DHT22;5793;52.238;13.438;2022-11-20T04:29:34;-0.40;99.90
11474;DHT22;5793;52.238;13.438;2022-11-20T04:32:01;-0.30;99.90
11474;DHT22;5793;52.238;13.438;2022-11-20T04:34:29;-0.30;99.90
11474;DHT22;5793;52.238;13.438;2022-11-20T04:36:57;-0.40;99.90
11474;DHT22;5793;52.238;13.438;2022-11-20T04:39:26;-0.30;99.90
11474;DHT22;5793;52.238;13.438;2022-11-20T04:41:54;-0.30;99.90
11474;DHT22;5793;52.238;13.438;2022-11-20T04:44:36;-0.30;99.90
11474;DHT22;5793;52.238;13.438;2022-11-20T04:47:03;-0.30;99.90
11474;DHT22;5793;52.238;13.438;2022-11-20T04:49:31;-0.30;99.90
11474;DHT22;5793;52.238;13.438;2022-11-20T04:52:00;-0.30;99.90
11474;DHT22;5793;52.238;13.438;2022-11-20T04:54:29;-0.30;99.90
11474;DHT22;5793;52.238;13.438;2022-11-20T04:56:57;-0.30;99.90
11474;DHT22;5793;52.238;13.438;2022-11-20T04:59:24;-0.40;99.90
11474;DHT22;5793;52.238;13.438;2022-11-20T05:01:52;-0.40;99.90
11474;DHT22;5793;52.238;13.438;2022-11-20T05:04:20;-0.30;99.90
11474;DHT22;5793;52.238;13.438;2022-11-20T05:06:49;-0.30;99.90
11474;DHT22;5793;52.238;13.438;2022-11-20T05:09:17;-0.30;99.90
11474;DHT22;5793;52.238;13.438;2022-11-20T05:11:46;-0.40;99.90
11474;DHT22;5793;52.238;13.438;2022-11-20T05:14:17;-0.40;99.90
11474;DHT22;5793;52.238;13.438;2022-11-20T05:16:45;-0.40;99.90
11474;DHT22;5793;52.238;13.438;2022-11-20T05:19:13;-0.40;99.90
11474;DHT22;5793;52.238;13.438;2022-11-20T05:21:40;-0.40;99.90
11474;DHT22;5793;52.238;13.438;2022-11-20T05:24:08;-0.40;99.90
11474;DHT22;5793;52.238;13.438;2022-11-20T05:26:36;-0.40;99.90
11474;DHT22;5793;52.238;13.438;2022-11-20T05:29:05;-0.40;99.90
11474;DHT22;5793;52.238;13.438;2022-11-20T05:31:33;-0.40;99.90
11474;DHT22;5793;52.238;13.438;2022-11-20T05:34:01;-0.40;99.90
11474;DHT22;5793;52.238;13.438;2022-11-20T05:36:30;-0.40;99.90
11474;DHT22;5793;52.238;13.438;2022-11-20T05:38:57;-0.50;99.90
11474;DHT22;5793;52.238;13.438;2022-11-20T05:41:27;-0.60;99.90
11474;DHT22;5793;52.238;13.438;2022-11-20T05:43:56;-0.70;99.90
11474;DHT22;5793;52.238;13.438;2022-11-20T05:46:26;-0.80;99.90
11474;DHT22;5793;52.238;13.438;2022-11-20T05:48:56;-0.90;99.90
11474;DHT22;5793;52.238;13.438;2022-11-20T05:51:25;-1.10;99.90
11474;DHT22;5793;52.238;13.438;2022-11-20T05:53:53;-1.20;99.90
11474;DHT22;5793;52.238;13.438;2022-11-20T05:56:21;-1.30;99.90
11474;DHT22;5793;52.238;13.438;2022-11-20T05:58:49;-1.40;99.90
11474;DHT22;5793;52.238;13.438;2022-11-20T06:01:19;-1.40;99.90
11474;DHT22;5793;52.238;13.438;2022-11-20T06:03:48;-1.50;99.90
11474;DHT22;5793;52.238;13.438;2022-11-20T06:06:18;-1.50;99.90
11474;DHT22;5793;52.238;13.438;2022-11-20T06:08:46;-1.60;99.90
11474;DHT22;5793;52.238;13.438;2022-11-20T06:11:15;-1.60;99.90
11474;DHT22;5793;52.238;13.438;2022-11-20T06:13:43;-1.70;99.90
11474;DHT22;5793;52.238;13.438;2022-11-20T06:16:12;-1.70;99.90
11474;DHT22;5793;52.238;13.438;2022-11-20T06:18:41;-1.70;99.90
11474;DHT22;5793;52.238;13.438;2022-11-20T06:21:12;-1.70;99.90
11474;DHT22;5793;52.238;13.438;2022-11-20T06:23:40;-1.70;99.90
11474;DHT22;5793;52.238;13.438;2022-11-20T06:26:09;-1.70;99.90
11474;DHT22;5793;52.238;13.438;2022-11-20T06:28:38;-1.60;99.90
11474;DHT22;5793;52.238;13.438;2022-11-20T06:31:06;-1.60;99.90
11474;DHT22;5793;52.238;13.438;2022-11-20T06:33:34;-1.50;99.90
11474;DHT22;5793;52.238;13.438;2022-11-20T06:36:04;-1.60;99.90
11474;DHT22;5793;52.238;13.438;2022-11-20T06:38:38;-1.50;99.90
11474;DHT22;5793;52.238;13.438;2022-11-20T06:41:07;-1.50;99.90
11474;DHT22;5793;52.238;13.438;2022-11-20T06:43:37;-1.40;99.90
11474;DHT22;5793;52.238;13.438;2022-11-20T06:46:05;-1.40;99.90
11474;DHT22;5793;52.238;13.438;2022-11-20T06:48:33;-1.30;99.90
11474;DHT22;5793;52.238;13.438;2022-11-20T06:51:03;-1.30;99.90
11474;DHT22;5793;52.238;13.438;2022-11-20T06:53:31;-1.30;99.90
11474;DHT22;5793;52.238;13.438;2022-11-20T06:56:00;-1.20;99.90
11474;DHT22;5793;52.238;13.438;2022-11-20T06:58:28;-1.20;99.90
11474;DHT22;5793;52.238;13.438;2022-11-20T07:00:58;-1.20;99.90
11474;DHT22;5793;52.238;13.438;2022-11-20T07:03:26;-1.20;99.90
11474;DHT22;5793;52.238;13.438;2022-11-20T07:05:54;-1.10;99.90
11474;DHT22;5793;52.238;13.438;2022-11-20T07:08:23;-1.10;99.90
11474;DHT22;5793;52.238;13.438;2022-11-20T07:10:51;-1.10;99.90
11474;DHT22;5793;52.238;13.438;2022-11-20T07:13:20;-1.10;99.90
11474;DHT22;5793;52.238;13.438;2022-11-20T07:15:47;-1.10;99.90
11474;DHT22;5793;52.238;13.438;2022-11-20T07:18:15;-1.00;99.90
11474;DHT22;5793;52.238;13.438;2022-11-20T07:20:43;-1.00;99.90
11474;DHT22;5793;52.238;13.438;2022-11-20T07:23:11;-1.00;99.90
11474;DHT22;5793;52.238;13.438;2022-11-20T07:25:38;-1.00;99.90
11474;DHT22;5793;52.238;13.438;2022-11-20T07:28:06;-0.90;99.90
11474;DHT22;5793;52.238;13.438;2022-11-20T07:30:36;-0.90;99.90
11474;DHT22;5793;52.238;13.438;2022-11-20T07:33:04;-0.90;99.90
11474;DHT22;5793;52.238;13.438;2022-11-20T07:35:31;-0.90;99.90
11474;DHT22;5793;52.238;13.438;2022-11-20T07:38:00;-0.90;99.90
11474;DHT22;5793;52.238;13.438;2022-11-20T07:40:27;-0.90;99.90
11474;DHT22;5793;52.238;13.438;2022-11-20T07:42:55;-0.90;99.90
11474;DHT22;5793;52.238;13.438;2022-11-20T07:45:24;-0.90;99.90
11474;DHT22;5793;52.238;13.438;2022-11-20T07:47:53;-0.90;99.90
11474;DHT22;5793;52.238;13.438;2022-11-20T07:50:21;-0.90;99.90
11474;DHT22;5793;52.238;13.438;2022-11-20T07:52:48;-0.80;99.90
11474;DHT22;5793;52.238;13.438;2022-11-20T07:55:17;-0.80;99.90
11474;DHT22;5793;52.238;13.438;2022-11-20T07:57:45;-0.70;99.90
11474;DHT22;5793;52.238;13.438;2022-11-20T08:00:13;-0.70;99.90
11474;DHT22;5793;52.238;13.438;2022-11-20T08:02:41;-0.70;99.90
11474;DHT22;5793;52.238;13.438;2022-11-20T08:05:10;-0.70;99.90
11474;DHT22;5793;52.238;13.438;2022-11-20T08:07:39;-0.70;99.90
11474;DHT22;5793;52.238;13.438;2022-11-20T08:10:09;-0.70;99.90
11474;DHT22;5793;52.238;13.438;2022-11-20T08:12:44;-0.50;99.90
11474;DHT22;5793;52.238;13.438;2022-11-20T08:15:29;-0.50;99.90
11474;DHT22;5793;52.238;13.438;2022-11-20T08:18:01;-0.40;99.90
11474;DHT22;5793;52.238;13.438;2022-11-20T08:20:50;-0.30;99.90
11474;DHT22;5793;52.238;13.438;2022-11-20T08:23:18;-0.30;99.90
11474;DHT22;5793;52.238;13.438;2022-11-20T08:25:49;-0.30;99.90
11474;DHT22;5793;52.238;13.438;2022-11-20T08:28:17;-0.30;99.90
11474;DHT22;5793;52.238;13.438;2022-11-20T08:30:48;-0.30;99.90
11474;DHT22;5793;52.238;13.438;2022-11-20T08:33:16;-0.30;99.90
11474;DHT22;5793;52.238;13.438;2022-11-20T08:35:45;-0.30;99.90
11474;DHT22;5793;52.238;13.438;2022-11-20T08:38:14;-0.30;99.90
11474;DHT22;5793;52.238;13.438;2022-11-20T08:40:42;-0.20;99.90
11474;DHT22;5793;52.238;13.438;2022-11-20T08:43:30;-0.10;99.90
11474;DHT22;5793;52.238;13.438;2022-11-20T08:45:58;-0.10;99.90
11474;DHT22;5793;52.238;13.438;2022-11-20T08:48:26;-0.10;99.90
11474;DHT22;5793;52.238;13.438;2022-11-20T08:50:57;-0.10;99.90
11474;DHT22;5793;52.238;13.438;2022-11-20T08:53:27;-0.10;99.90
11474;DHT22;5793;52.238;13.438;2022-11-20T08:55:56;-0.10;99.90
11474;DHT22;5793;52.238;13.438;2022-11-20T08:58:25;0.00;99.90
11474;DHT22;5793;52.238;13.438;2022-11-20T09:00:53;0.00;99.90
11474;DHT22;5793;52.238;13.438;2022-11-20T09:03:21;0.00;99.90
11474;DHT22;5793;52.238;13.438;2022-11-20T09:05:57;0.00;99.90
11474;DHT22;5793;52.238;13.438;2022-11-20T09:08:28;0.00;99.90
11474;DHT22;5793;52.238;13.438;2022-11-20T09:10:57;0.00;99.90
11474;DHT22;5793;52.238;13.438;2022-11-20T09:13:26;0.00;99.90
11474;DHT22;5793;52.238;13.438;2022-11-20T09:15:54;0.00;99.90
11474;DHT22;5793;52.238;13.438;2022-11-20T09:18:23;0.00;99.90
11474;DHT22;5793;52.238;13.438;2022-11-20T09:20:51;0.00;99.90
11474;DHT22;5793;52.238;13.438;2022-11-20T09:23:19;0.00;99.90
11474;DHT22;5793;52.238;13.438;2022-11-20T09:25:48;0.00;99.90
11474;DHT22;5793;52.238;13.438;2022-11-20T09:28:15;0.00;99.90
11474;DHT22;5793;52.238;13.438;2022-11-20T09:30:44;0.10;99.90
11474;DHT22;5793;52.238;13.438;2022-11-20T09:33:12;0.00;99.90
11474;DHT22;5793;52.238;13.438;2022-11-20T09:35:40;0.10;99.90
11474;DHT22;5793;52.238;13.438;2022-11-20T09:38:08;0.10;99.90
11474;DHT22;5793;52.238;13.438;2022-11-20T09:40:40;0.00;99.90
11474;DHT22;5793;52.238;13.438;2022-11-20T09:43:16;0.00;99.90
11474;DHT22;5793;52.238;13.438;2022-11-20T09:45:56;0.00;99.90
11474;DHT22;5793;52.238;13.438;2022-11-20T09:48:41;0.10;99.90
11474;DHT22;5793;52.238;13.438;2022-11-20T09:51:20;0.10;99.90
11474;DHT22;5793;52.238;13.438;2022-11-20T09:54:00;0.10;99.90
11474;DHT22;5793;52.238;13.438;2022-11-20T09:56:30;0.20;99.90
11474;DHT22;5793;52.238;13.438;2022-11-20T09:59:05;0.20;99.90
11474;DHT22;5793;52.238;13.438;2022-11-20T10:01:35;0.20;99.90
11474;DHT22;5793;52.238;13.438;2022-11-20T10:04:09;0.30;99.90
11474;DHT22;5793;52.238;13.438;2022-11-20T10:06:42;0.20;99.90
11474;DHT22;5793;52.238;13.438;2022-11-20T10:09:25;0.20;99.90
11474;DHT22;5793;52.238;13.438;2022-11-20T10:12:02;0.30;99.90
11474;DHT22;5793;52.238;13.438;2022-11-20T10:14:42;0.30;99.90
11474;DHT22;5793;52.238;13.438;2022-11-20T10:17:22;0.40;99.90
11474;DHT22;5793;52.238;13.438;2022-11-20T10:20:07;0.40;99.90
11474;DHT22;5793;52.238;13.438;2022-11-20T10:22:49;0.40;99.90
11474;DHT22;5793;52.238;13.438;2022-11-20T10:25:19;0.40;99.90
11474;DHT22;5793;52.238;13.438;2022-11-20T10:30:46;0.40;99.90
11474;DHT22;5793;52.238;13.438;2022-11-20T10:33:21;0.50;99.90
11474;DHT22;5793;52.238;13.438;2022-11-20T10:35:52;0.50;99.90
11474;DHT22;5793;52.238;13.438;2022-11-20T10:38:23;0.60;99.90
11474;DHT22;5793;52.238;13.438;2022-11-20T10:40:54;0.70;99.90
11474;DHT22;5793;52.238;13.438;2022-11-20T10:43:45;0.70;99.90
11474;DHT22;5793;52.238;13.438;2022-11-20T10:46:17;0.70;99.90
11474;DHT22;5793;52.238;13.438;2022-11-20T10:48:46;0.70;99.90
11474;DHT22;5793;52.238;13.438;2022-11-20T10:51:31;0.70;99.90
11474;DHT22;5793;52.238;13.438;2022-11-20T10:54:10;0.60;99.90
11474;DHT22;5793;52.238;13.438;2022-11-20T10:56:42;0.70;99.90
11474;DHT22;5793;52.238;13.438;2022-11-20T10:59:32;0.70;99.90
11474;DHT22;5793;52.238;13.438;2022-11-20T11:02:15;0.80;99.90
11474;DHT22;5793;52.238;13.438;2022-11-20T11:04:45;0.90;99.90
11474;DHT22;5793;52.238;13.438;2022-11-20T11:07:16;1.00;99.90
11474;DHT22;5793;52.238;13.438;2022-11-20T11:09:48;1.20;99.90
11474;DHT22;5793;52.238;13.438;2022-11-20T11:12:16;1.30;99.90
11474;DHT22;5793;52.238;13.438;2022-11-20T11:14:46;1.30;99.90
11474;DHT22;5793;52.238;13.438;2022-11-20T11:17:34;1.40;99.90
11474;DHT22;5793;52.238;13.438;2022-11-20T11:20:05;1.60;99.90
11474;DHT22;5793;52.238;13.438;2022-11-20T11:22:34;1.80;99.90
11474;DHT22;5793;52.238;13.438;2022-11-20T11:25:02;1.80;99.90
11474;DHT22;5793;52.238;13.438;2022-11-20T11:27:30;1.90;99.90
11474;DHT22;5793;52.238;13.438;2022-11-20T11:30:10;2.00;99.90
11474;DHT22;5793;52.238;13.438;2022-11-20T11:32:42;2.20;99.90
11474;DHT22;5793;52.238;13.438;2022-11-20T11:35:24;2.40;99.90
11474;DHT22;5793;52.238;13.438;2022-11-20T11:37:54;2.70;99.90
11474;DHT22;5793;52.238;13.438;2022-11-20T11:40:30;2.90;99.90
11474;DHT22;5793;52.238;13.438;2022-11-20T11:43:02;3.10;99.90
11474;DHT22;5793;52.238;13.438;2022-11-20T11:45:31;3.20;99.90
11474;DHT22;5793;52.238;13.438;2022-11-20T11:48:03;3.30;99.90
11474;DHT22;5793;52.238;13.438;2022-11-20T11:50:31;3.40;99.90
11474;DHT22;5793;52.238;13.438;2022-11-20T11:53:09;3.60;99.90
11474;DHT22;5793;52.238;13.438;2022-11-20T11:55:41;3.70;99.90
11474;DHT22;5793;52.238;13.438;2022-11-20T11:58:16;3.80;99.90
11474;DHT22;5793;52.238;13.438;2022-11-20T12:00:51;4.00;99.90
11474;DHT22;5793;52.238;13.438;2022-11-20T12:03:27;4.10;99.90
11474;DHT22;5793;52.238;13.438;2022-11-20T12:05:59;4.00;99.90
11474;DHT22;5793;52.238;13.438;2022-11-20T12:08:32;3.90;99.90
11474;DHT22;5793;52.238;13.438;2022-11-20T12:11:11;3.70;99.90
11474;DHT22;5793;52.238;13.438;2022-11-20T12:13:44;3.30;99.90
11474;DHT22;5793;52.238;13.438;2022-11-20T12:16:14;3.00;99.90
11474;DHT22;5793;52.238;13.438;2022-11-20T12:18:45;2.80;99.90
11474;DHT22;5793;52.238;13.438;2022-11-20T12:21:18;2.70;99.90
11474;DHT22;5793;52.238;13.438;2022-11-20T12:26:36;2.50;99.90
11474;DHT22;5793;52.238;13.438;2022-11-20T12:29:06;2.30;99.90
11474;DHT22;5793;52.238;13.438;2022-11-20T12:31:45;2.30;99.90
11474;DHT22;5793;52.238;13.438;2022-11-20T12:34:27;2.30;99.90
11474;DHT22;5793;52.238;13.438;2022-11-20T12:37:00;2.20;99.90
11474;DHT22;5793;52.238;13.438;2022-11-20T12:39:34;2.20;99.90
11474;DHT22;5793;52.238;13.438;2022-11-20T12:42:14;2.20;99.90
11474;DHT22;5793;52.238;13.438;2022-11-20T12:45:08;2.10;99.90
11474;DHT22;5793;52.238;13.438;2022-11-20T12:47:42;2.00;99.90
11474;DHT22;5793;52.238;13.438;2022-11-20T12:50:17;2.00;99.90
11474;DHT22;5793;52.238;13.438;2022-11-20T12:52:50;1.90;99.90
11474;DHT22;5793;52.238;13.438;2022-11-20T12:55:33;2.00;99.90
11474;DHT22;5793;52.238;13.438;2022-11-20T12:58:04;2.00;99.90
11474;DHT22;5793;52.238;13.438;2022-11-20T13:00:32;2.00;99.90
11474;DHT22;5793;52.238;13.438;2022-11-20T13:05:52;1.90;99.90
11474;DHT22;5793;52.238;13.438;2022-11-20T13:08:23;1.90;99.90
11474;DHT22;5793;52.238;13.438;2022-11-20T13:10:52;1.90;99.90
11474;DHT22;5793;52.238;13.438;2022-11-20T13:13:23;1.90;99.90
11474;DHT22;5793;52.238;13.438;2022-11-20T13:15:54;1.90;99.90
11474;DHT22;5793;52.238;13.438;2022-11-20T13:18:23;1.80;99.90
11474;DHT22;5793;52.238;13.438;2022-11-20T13:20:52;1.80;99.90
11474;DHT22;5793;52.238;13.438;2022-11-20T13:23:23;1.80;99.90
11474;DHT22;5793;52.238;13.438;2022-11-20T13:26:04;1.80;99.90
11474;DHT22;5793;52.238;13.438;2022-11-20T13:28:32;1.70;99.90
11474;DHT22;5793;52.238;13.438;2022-11-20T13:31:00;1.80;99.90
11474;DHT22;5793;52.238;13.438;2022-11-20T13:33:29;1.70;99.90
11474;DHT22;5793;52.238;13.438;2022-11-20T13:35:59;1.70;99.90
11474;DHT22;5793;52.238;13.438;2022-11-20T13:38:28;1.70;99.90
11474;DHT22;5793;52.238;13.438;2022-11-20T13:40:59;1.70;99.90
11474;DHT22;5793;52.238;13.438;2022-11-20T13:43:48;1.70;99.90
11474;DHT22;5793;52.238;13.438;2022-11-20T13:46:15;1.60;99.90
11474;DHT22;5793;52.238;13.438;2022-11-20T13:48:46;1.60;99.90
11474;DHT22;5793;52.238;13.438;2022-11-20T13:51:18;1.70;99.90
11474;DHT22;5793;52.238;13.438;2022-11-20T13:53:58;1.60;99.90
11474;DHT22;5793;52.238;13.438;2022-11-20T13:56:32;1.60;99.90
11474;DHT22;5793;52.238;13.438;2022-11-20T13:59:02;1.50;99.90
11474;DHT22;5793;52.238;13.438;2022-11-20T14:01:37;1.50;99.90
11474;DHT22;5793;52.238;13.438;2022-11-20T14:04:06;1.50;99.90
11474;DHT22;5793;52.238;13.438;2022-11-20T14:06:40;1.50;99.90
11474;DHT22;5793;52.238;13.438;2022-11-20T14:09:10;1.50;99.90
11474;DHT22;5793;52.238;13.438;2022-11-20T14:11:45;1.50;99.90
11474;DHT22;5793;52.238;13.438;2022-11-20T14:14:13;1.40;99.90
11474;DHT22;5793;52.238;13.438;2022-11-20T14:16:42;1.40;99.90
11474;DHT22;5793;52.238;13.438;2022-11-20T14:19:21;1.30;99.90
11474;DHT22;5793;52.238;13.438;2022-11-20T14:21:53;1.40;99.90
11474;DHT22;5793;52.238;13.438;2022-11-20T14:24:21;1.30;99.90
11474;DHT22;5793;52.238;13.438;2022-11-20T14:26:49;1.30;99.90
11474;DHT22;5793;52.238;13.438;2022-11-20T14:29:18;1.30;99.90
11474;DHT22;5793;52.238;13.438;2022-11-20T14:31:46;1.20;99.90
11474;DHT22;5793;52.238;13.438;2022-11-20T14:34:20;1.30;99.90
11474;DHT22;5793;52.238;13.438;2022-11-20T14:36:49;1.20;99.90
11474;DHT22;5793;52.238;13.438;2022-11-20T14:39:21;1.20;99.90
11474;DHT22;5793;52.238;13.438;2022-11-20T14:41:50;1.20;99.90
11474;DHT22;5793;52.238;13.438;2022-11-20T14:44:18;1.20;99.90
11474;DHT22;5793;52.238;13.438;2022-11-20T14:46:48;1.10;99.90
11474;DHT22;5793;52.238;13.438;2022-11-20T14:49:15;1.10;99.90
11474;DHT22;5793;52.238;13.438;2022-11-20T14:51:43;1.10;99.90
11474;DHT22;5793;52.238;13.438;2022-11-20T14:54:14;1.10;99.90
11474;DHT22;5793;52.238;13.438;2022-11-20T14:56:43;1.10;99.90
11474;DHT22;5793;52.238;13.438;2022-11-20T14:59:22;1.10;99.90
11474;DHT22;5793;52.238;13.438;2022-11-20T15:01:54;1.30;99.90
11474;DHT22;5793;52.238;13.438;2022-11-20T15:04:22;1.20;99.90
11474;DHT22;5793;52.238;13.438;2022-11-20T15:06:52;1.10;99.90
11474;DHT22;5793;52.238;13.438;2022-11-20T15:09:20;1.10;99.90
11474;DHT22;5793;52.238;13.438;2022-11-20T15:11:53;1.10;99.90
11474;DHT22;5793;52.238;13.438;2022-11-20T15:14:21;1.00;99.90
11474;DHT22;5793;52.238;13.438;2022-11-20T15:16:50;1.00;99.90
11474;DHT22;5793;52.238;13.438;2022-11-20T15:19:19;0.90;99.90
11474;DHT22;5793;52.238;13.438;2022-11-20T15:21:47;0.90;99.90
11474;DHT22;5793;52.238;13.438;2022-11-20T15:24:15;0.90;99.90
11474;DHT22;5793;52.238;13.438;2022-11-20T15:26:42;0.80;99.90
11474;DHT22;5793;52.238;13.438;2022-11-20T15:29:12;0.70;99.90
11474;DHT22;5793;52.238;13.438;2022-11-20T15:31:40;0.70;99.90
11474;DHT22;5793;52.238;13.438;2022-11-20T15:34:10;0.60;99.90
11474;DHT22;5793;52.238;13.438;2022-11-20T15:36:39;0.40;99.90
11474;DHT22;5793;52.238;13.438;2022-11-20T15:39:07;0.30;99.90
11474;DHT22;5793;52.238;13.438;2022-11-20T15:41:35;0.20;99.90
11474;DHT22;5793;52.238;13.438;2022-11-20T15:44:03;0.10;99.90
11474;DHT22;5793;52.238;13.438;2022-11-20T15:46:33;0.10;99.90
11474;DHT22;5793;52.238;13.438;2022-11-20T15:49:04;0.10;99.90
11474;DHT22;5793;52.238;13.438;2022-11-20T15:51:33;0.10;99.90
11474;DHT22;5793;52.238;13.438;2022-11-20T15:54:03;0.20;99.90
11474;DHT22;5793;52.238;13.438;2022-11-20T15:56:36;0.20;99.90
11474;DHT22;5793;52.238;13.438;2022-11-20T15:59:04;0.30;99.90
11474;DHT22;5793;52.238;13.438;2022-11-20T16:01:33;0.30;99.90
11474;DHT22;5793;52.238;13.438;2022-11-20T16:04:00;0.40;99.90
11474;DHT22;5793;52.238;13.438;2022-11-20T16:06:28;0.40;99.90